Time;durP1;ratioP1;P1;durP2;ratioP2;P2;SDS_P1;SDS_P2;PMS_P1;PMS_P2;Temp;Humidity;BMP_temperature;BMP_pressure;BME280_temperature;BME280_humidity;BME280_pressure;Samples;Min_cycle;Max_cycle;Signal;HPM_P1;HPM_P2
2021/11/24 00:01:32;;;;;;;56.08;24.27;;;;;;;;;;5073412;28;20016;-34
2021/11/24 00:03:57;;;;;;;55.50;25.13;;;;;;;;;;5074121;28;20073;-33
2021/11/24 00:06:23;;;;;;;65.85;26.25;;;;;;;;;;5092716;28;20399;-33
2021/11/24 00:08:49;;;;;;;60.85;24.90;;;;;;;;;;5073850;28;20024;-33
2021/11/24 00:11:14;;;;;;;61.85;26.02;;;;;;;;;;5094801;28;20412;-33
2021/11/24 00:13:40;;;;;;;66.25;26.70;;;;;;;;;;5096402;28;20059;-33
2021/11/24 00:16:07;;;;;;;86.88;30.90;;;;;;;;;;5077580;28;20026;-33
2021/11/24 00:18:32;;;;;;;87.07;31.55;;;;;;;;;;5096146;28;20521;-33
2021/11/24 00:20:57;;;;;;;76.70;29.67;;;;;;;;;;5077868;28;20024;-33
2021/11/24 00:23:23;;;;;;;70.88;28.13;;;;;;;;;;5077658;28;20020;-34
2021/11/24 00:25:48;;;;;;;68.60;28.02;;;;;;;;;;5077369;28;20447;-33
2021/11/24 00:28:13;;;;;;;69.15;26.08;;;;;;;;;;5095652;28;20046;-34
2021/11/24 00:30:39;;;;;;;58.35;25.45;;;;;;;;;;5095325;28;20146;-33
2021/11/24 00:33:04;;;;;;;57.90;25.05;;;;;;;;;;5077686;28;20039;-33
2021/11/24 00:35:29;;;;;;;54.38;23.40;;;;;;;;;;5095584;28;20383;-33
2021/11/24 00:37:55;;;;;;;53.55;22.58;;;;;;;;;;5077051;28;20052;-33
2021/11/24 00:40:20;;;;;;;57.17;22.13;;;;;;;;;;5095504;28;20473;-33
2021/11/24 00:42:45;;;;;;;52.55;23.25;;;;;;;;;;5095687;28;20023;-33
2021/11/24 00:45:11;;;;;;;54.78;24.67;;;;;;;;;;5095559;28;20026;-33
2021/11/24 00:47:36;;;;;;;58.88;24.58;;;;;;;;;;5093682;28;20524;-34
2021/11/24 00:50:02;;;;;;;48.17;21.60;;;;;;;;;;5095724;28;20020;-33
2021/11/24 00:52:29;;;;;;;58.00;23.90;;;;;;;;;;5095230;28;20099;-34
2021/11/24 00:54:55;;;;;;;48.88;21.98;;;;;;;;;;5077435;28;20062;-33
2021/11/24 00:57:20;;;;;;;50.75;22.35;;;;;;;;;;5095217;28;20572;-35
2021/11/24 00:59:45;;;;;;;55.03;21.52;;;;;;;;;;5095186;28;20038;-34
2021/11/24 01:02:10;;;;;;;56.47;23.70;;;;;;;;;;5094863;28;20454;-34
2021/11/24 01:04:36;;;;;;;49.53;21.42;;;;;;;;;;5077172;28;20023;-33
2021/11/24 01:07:01;;;;;;;54.80;23.38;;;;;;;;;;5095254;28;20077;-34
2021/11/24 01:09:26;;;;;;;48.55;20.58;;;;;;;;;;5076797;28;20024;-34
2021/11/24 01:11:52;;;;;;;49.42;22.95;;;;;;;;;;5076650;28;20110;-33
2021/11/24 01:14:17;;;;;;;48.13;21.98;;;;;;;;;;5094679;28;20020;-33
2021/11/24 01:16:44;;;;;;;50.88;22.88;;;;;;;;;;5095162;28;20028;-33
2021/11/24 01:19:09;;;;;;;42.92;20.67;;;;;;;;;;5094538;28;20491;-33
2021/11/24 01:21:35;;;;;;;45.78;20.48;;;;;;;;;;5075949;28;20034;-33
2021/11/24 01:24:00;;;;;;;49.20;22.23;;;;;;;;;;5077161;28;20550;-33
2021/11/24 01:26:25;;;;;;;51.45;22.80;;;;;;;;;;5094800;28;20023;-34
2021/11/24 01:28:51;;;;;;;52.35;22.00;;;;;;;;;;5094319;28;20103;-34
2021/11/24 01:31:16;;;;;;;54.85;23.05;;;;;;;;;;5095107;28;20035;-35
2021/11/24 01:33:41;;;;;;;52.30;21.88;;;;;;;;;;5076752;28;20074;-33
2021/11/24 01:36:07;;;;;;;52.10;22.42;;;;;;;;;;5094820;28;20454;-33
2021/11/24 01:38:32;;;;;;;55.42;21.80;;;;;;;;;;5093906;28;20052;-33
2021/11/24 01:40:57;;;;;;;51.50;21.23;;;;;;;;;;5094663;28;20049;-33
2021/11/24 01:43:23;;;;;;;46.80;21.92;;;;;;;;;;5076243;28;20173;-34
2021/11/24 01:45:48;;;;;;;53.33;21.55;;;;;;;;;;5094751;28;20024;-33
2021/11/24 01:48:14;;;;;;;54.42;21.48;;;;;;;;;;5093732;28;20026;-33
2021/11/24 01:50:39;;;;;;;50.53;21.42;;;;;;;;;;5076331;28;20024;-33
2021/11/24 01:53:05;;;;;;;49.42;21.35;;;;;;;;;;5094350;28;20016;-33
2021/11/24 01:55:30;;;;;;;47.25;21.35;;;;;;;;;;5094217;28;20022;-33
2021/11/24 01:57:56;;;;;;;49.40;19.67;;;;;;;;;;5093590;28;20123;-34
2021/11/24 02:00:26;;;;;;;47.67;20.42;;;;;;;;;;5076338;28;20474;-33
2021/11/24 02:02:51;;;;;;;48.88;20.73;;;;;;;;;;5094282;28;20024;-33
2021/11/24 02:05:17;;;;;;;39.75;19.45;;;;;;;;;;5094270;28;20020;-33
2021/11/24 02:07:42;;;;;;;42.50;20.05;;;;;;;;;;5093892;28;20024;-33
2021/11/24 02:10:08;;;;;;;39.13;18.77;;;;;;;;;;5094053;28;20474;-33
2021/11/24 02:12:33;;;;;;;44.33;19.75;;;;;;;;;;5093671;28;20020;-34
2021/11/24 02:14:59;;;;;;;47.60;19.65;;;;;;;;;;5093575;28;20024;-34
2021/11/24 02:17:24;;;;;;;45.45;20.20;;;;;;;;;;5093671;28;20421;-34
2021/11/24 02:19:49;;;;;;;41.92;20.02;;;;;;;;;;5093847;28;20032;-33
2021/11/24 02:22:14;;;;;;;44.38;18.42;;;;;;;;;;5075290;28;20024;-33
2021/11/24 02:24:40;;;;;;;42.60;18.77;;;;;;;;;;5093802;28;20031;-33
2021/11/24 02:27:07;;;;;;;34.65;17.58;;;;;;;;;;5075246;28;20407;-36
2021/11/24 02:29:32;;;;;;;37.47;17.35;;;;;;;;;;5093524;28;20016;-33
2021/11/24 02:31:59;;;;;;;66.05;19.83;;;;;;;;;;5093743;28;20027;-34
2021/11/24 02:34:25;;;;;;;36.90;17.65;;;;;;;;;;5075139;28;20012;-33
2021/11/24 02:36:50;;;;;;;49.03;19.13;;;;;;;;;;5093085;28;20023;-38
2021/11/24 02:39:15;;;;;;;53.15;19.40;;;;;;;;;;5092731;28;20405;-33
2021/11/24 02:41:42;;;;;;;49.17;19.55;;;;;;;;;;5093778;28;20127;-34
2021/11/24 02:44:16;;;;;;;40.63;18.17;;;;;;;;;;5093193;28;20071;-33
2021/11/24 02:46:41;;;;;;;40.90;18.83;;;;;;;;;;5093945;28;20463;-33
2021/11/24 02:49:06;;;;;;;41.45;18.75;;;;;;;;;;5092629;28;20043;-33
2021/11/24 02:51:32;;;;;;;41.10;17.80;;;;;;;;;;5093243;28;20043;-33
2021/11/24 02:53:57;;;;;;;37.95;17.02;;;;;;;;;;5074926;28;20459;-33
2021/11/24 02:56:22;;;;;;;40.33;17.48;;;;;;;;;;5074908;28;20028;-33
2021/11/24 02:58:48;;;;;;;36.75;16.60;;;;;;;;;;5092394;28;20028;-34
2021/11/24 03:01:13;;;;;;;40.53;17.90;;;;;;;;;;5093155;28;20459;-33
2021/11/24 03:03:38;;;;;;;38.53;18.35;;;;;;;;;;5092704;28;20461;-34
2021/11/24 03:06:03;;;;;;;34.60;16.55;;;;;;;;;;5093089;28;20016;-33
2021/11/24 03:08:29;;;;;;;40.40;17.85;;;;;;;;;;5092496;28;20020;-33
2021/11/24 03:10:54;;;;;;;40.22;18.48;;;;;;;;;;5074598;28;20134;-33
2021/11/24 03:13:19;;;;;;;39.47;18.27;;;;;;;;;;5092297;28;20387;-33
2021/11/24 03:15:45;;;;;;;46.88;18.55;;;;;;;;;;5074751;28;20474;-33
2021/11/24 03:18:10;;;;;;;42.22;19.20;;;;;;;;;;5074214;28;20441;-33
2021/11/24 03:20:35;;;;;;;46.78;19.38;;;;;;;;;;5091675;28;20456;-36
2021/11/24 03:23:01;;;;;;;55.75;21.98;;;;;;;;;;5074139;28;20096;-34
2021/11/24 03:25:26;;;;;;;52.85;19.90;;;;;;;;;;5092726;28;20023;-33
2021/11/24 03:27:52;;;;;;;70.13;22.58;;;;;;;;;;5092135;28;20531;-33
2021/11/24 03:30:19;;;;;;;64.80;22.45;;;;;;;;;;5092910;28;20447;-33
2021/11/24 03:32:44;;;;;;;66.05;22.52;;;;;;;;;;5092568;28;20039;-34
2021/11/24 03:35:10;;;;;;;78.70;26.98;;;;;;;;;;5073896;28;20102;-33
2021/11/24 03:37:36;;;;;;;61.70;24.63;;;;;;;;;;5092179;28;20367;-34
2021/11/24 03:40:02;;;;;;;81.80;25.88;;;;;;;;;;5091953;28;20052;-35
2021/11/24 03:42:28;;;;;;;66.97;23.38;;;;;;;;;;5092917;28;20019;-33
2021/11/24 03:44:53;;;;;;;70.43;25.17;;;;;;;;;;5092114;28;20367;-33
2021/11/24 03:47:19;;;;;;;82.22;26.83;;;;;;;;;;5092486;28;20105;-36
2021/11/24 03:49:44;;;;;;;68.43;24.83;;;;;;;;;;5092000;28;20028;-34
2021/11/24 03:52:09;;;;;;;63.30;22.05;;;;;;;;;;5092244;28;20097;-33
2021/11/24 03:54:35;;;;;;;51.60;21.73;;;;;;;;;;5092235;28;20012;-34
2021/11/24 03:57:00;;;;;;;60.28;21.95;;;;;;;;;;5092112;28;20031;-38
2021/11/24 03:59:26;;;;;;;51.13;21.23;;;;;;;;;;5091825;28;20027;-33
2021/11/24 04:01:51;;;;;;;63.50;24.17;;;;;;;;;;5074235;28;20024;-33
2021/11/24 04:04:16;;;;;;;59.67;23.00;;;;;;;;;;5074090;28;20115;-33
2021/11/24 04:06:42;;;;;;;53.00;22.40;;;;;;;;;;5092309;28;20069;-34
2021/11/24 04:09:07;;;;;;;58.35;22.15;;;;;;;;;;5091347;28;20452;-34
2021/11/24 04:11:32;;;;;;;65.55;21.50;;;;;;;;;;5073599;28;20028;-34
2021/11/24 04:13:58;;;;;;;47.15;19.55;;;;;;;;;;5091732;28;20463;-34
2021/11/24 04:16:23;;;;;;;51.50;20.52;;;;;;;;;;5092253;28;20016;-33
2021/11/24 04:18:49;;;;;;;51.22;21.27;;;;;;;;;;5091239;28;20012;-34
2021/11/24 04:21:18;;;;;;;51.53;21.67;;;;;;;;;;5073975;28;20016;-34
2021/11/24 04:23:44;;;;;;;53.60;20.42;;;;;;;;;;5092161;28;20052;-35
2021/11/24 04:26:09;;;;;;;50.33;20.98;;;;;;;;;;5091483;28;20028;-34
2021/11/24 04:28:34;;;;;;;49.92;20.92;;;;;;;;;;5091945;28;20028;-33
2021/11/24 04:31:02;;;;;;;48.92;19.13;;;;;;;;;;5091941;28;20021;-34
2021/11/24 04:33:28;;;;;;;47.45;19.80;;;;;;;;;;5091948;28;20073;-34
2021/11/24 04:35:53;;;;;;;47.95;20.50;;;;;;;;;;5091279;28;20036;-34
2021/11/24 04:38:18;;;;;;;54.00;20.13;;;;;;;;;;5056092;28;20124;-38
2021/11/24 04:40:44;;;;;;;48.42;20.92;;;;;;;;;;5051541;28;20021;-34
2021/11/24 04:43:12;;;;;;;48.65;20.40;;;;;;;;;;5050443;28;20025;-33
2021/11/24 04:45:37;;;;;;;47.92;20.10;;;;;;;;;;5051248;28;20388;-36
2021/11/24 04:48:02;;;;;;;50.80;20.25;;;;;;;;;;5051219;28;20028;-34
2021/11/24 04:50:28;;;;;;;49.63;19.70;;;;;;;;;;5050402;28;20048;-33
2021/11/24 04:52:53;;;;;;;46.83;20.15;;;;;;;;;;5051292;28;20021;-33
2021/11/24 04:55:18;;;;;;;53.65;20.60;;;;;;;;;;5051327;28;20029;-34
2021/11/24 04:57:43;;;;;;;51.38;20.40;;;;;;;;;;5051621;28;20437;-33
2021/11/24 05:00:15;;;;;;;57.47;20.25;;;;;;;;;;5054815;28;20028;-36
2021/11/24 05:02:41;;;;;;;51.53;20.38;;;;;;;;;;5055051;28;20025;-33
2021/11/24 05:05:06;;;;;;;48.85;20.80;;;;;;;;;;5054865;28;20178;-33
2021/11/24 05:07:32;;;;;;;60.13;21.35;;;;;;;;;;5053808;28;20021;-39
2021/11/24 05:09:57;;;;;;;51.47;20.25;;;;;;;;;;5054272;28;20098;-33
2021/11/24 05:12:22;;;;;;;55.25;19.98;;;;;;;;;;5053587;28;20112;-33
2021/11/24 05:14:50;;;;;;;59.15;20.70;;;;;;;;;;5054984;28;20053;-33
2021/11/24 05:17:17;;;;;;;46.60;19.70;;;;;;;;;;5054718;28;20025;-33
2021/11/24 05:19:47;;;;;;;52.42;20.23;;;;;;;;;;5054665;28;20024;-33
2021/11/24 05:22:13;;;;;;;56.45;21.95;;;;;;;;;;5054460;28;20028;-34
2021/11/24 05:24:38;;;;;;;54.08;21.50;;;;;;;;;;5054845;28;20025;-33
2021/11/24 05:27:04;;;;;;;50.85;21.08;;;;;;;;;;5054707;28;20017;-34
2021/11/24 05:29:29;;;;;;;61.40;22.75;;;;;;;;;;5054538;28;20075;-35
2021/11/24 05:31:54;;;;;;;52.95;21.13;;;;;;;;;;5053235;28;20059;-34
2021/11/24 05:34:20;;;;;;;54.80;21.95;;;;;;;;;;5053241;28;20113;-34
2021/11/24 05:36:45;;;;;;;61.30;21.08;;;;;;;;;;5056109;28;20460;-34
2021/11/24 05:39:11;;;;;;;54.72;21.63;;;;;;;;;;5076247;28;20088;-33
2021/11/24 05:41:41;;;;;;;53.65;20.40;;;;;;;;;;5094612;28;20024;-33
2021/11/24 05:44:24;;;;;;;56.22;22.30;;;;;;;;;;5094644;28;20424;-33
2021/11/24 05:46:54;;;;;;;55.13;20.92;;;;;;;;;;5075961;28;20451;-35
2021/11/24 05:49:20;;;;;;;50.45;21.98;;;;;;;;;;5093831;28;20459;-34
2021/11/24 05:51:46;;;;;;;62.45;22.23;;;;;;;;;;5094810;28;20020;-33
2021/11/24 05:54:11;;;;;;;56.60;21.05;;;;;;;;;;5076173;28;20016;-34
2021/11/24 05:56:38;;;;;;;52.72;22.65;;;;;;;;;;5094317;28;20020;-33
2021/11/24 05:59:05;;;;;;;59.40;23.98;;;;;;;;;;5094043;28;20098;-33
2021/11/24 06:01:30;;;;;;;64.47;23.30;;;;;;;;;;5075588;28;20023;-34
2021/11/24 06:03:55;;;;;;;55.15;22.02;;;;;;;;;;5075864;28;20023;-33
2021/11/24 06:06:21;;;;;;;57.80;22.35;;;;;;;;;;5076031;28;20016;-35
2021/11/24 06:08:46;;;;;;;52.10;21.67;;;;;;;;;;5093510;28;20060;-33
2021/11/24 06:11:11;;;;;;;57.67;23.67;;;;;;;;;;5075443;28;20376;-34
2021/11/24 06:13:36;;;;;;;65.65;23.67;;;;;;;;;;5093850;28;20028;-33
2021/11/24 06:16:02;;;;;;;60.97;25.15;;;;;;;;;;5075996;28;20024;-33
2021/11/24 06:18:27;;;;;;;52.15;21.75;;;;;;;;;;5093216;28;20024;-34
2021/11/24 06:20:52;;;;;;;65.32;26.33;;;;;;;;;;5093479;28;20028;-33
2021/11/24 06:23:17;;;;;;;57.60;26.23;;;;;;;;;;5093519;28;20016;-33
2021/11/24 06:25:43;;;;;;;59.72;25.63;;;;;;;;;;5093760;28;20077;-34
2021/11/24 06:28:08;;;;;;;67.07;27.67;;;;;;;;;;5093232;28;20461;-33
2021/11/24 06:30:33;;;;;;;64.80;27.40;;;;;;;;;;5093649;28;20020;-34
2021/11/24 06:32:59;;;;;;;73.93;27.90;;;;;;;;;;5093222;28;20016;-34
2021/11/24 06:35:24;;;;;;;55.97;25.30;;;;;;;;;;5075369;28;20024;-34
2021/11/24 06:37:49;;;;;;;67.60;26.75;;;;;;;;;;5092756;28;20048;-33
2021/11/24 06:40:15;;;;;;;62.03;27.63;;;;;;;;;;5075017;28;20016;-34
2021/11/24 06:42:40;;;;;;;58.47;27.25;;;;;;;;;;5073243;28;20016;-34
2021/11/24 06:45:06;;;;;;;66.95;29.40;;;;;;;;;;5081304;28;20039;-35
2021/11/24 06:47:32;;;;;;;94.50;37.97;;;;;;;;;;5083405;28;20054;-36
2021/11/24 06:49:58;;;;;;;81.10;35.55;;;;;;;;;;5092724;28;20059;-33
2021/11/24 06:52:23;;;;;;;86.82;37.75;;;;;;;;;;5093107;28;20058;-38
2021/11/24 06:54:48;;;;;;;122.97;43.97;;;;;;;;;;5071312;28;20024;-34
2021/11/24 06:57:13;;;;;;;66.38;31.85;;;;;;;;;;5088161;28;20069;-39
2021/11/24 06:59:39;;;;;;;62.40;30.67;;;;;;;;;;5085530;28;20044;-33
2021/11/24 07:02:04;;;;;;;69.18;30.67;;;;;;;;;;5068779;28;20131;-33
2021/11/24 07:04:30;;;;;;;78.50;32.88;;;;;;;;;;5068850;28;20021;-33
2021/11/24 07:06:55;;;;;;;78.22;34.33;;;;;;;;;;5092902;28;20043;-34
2021/11/24 07:09:22;;;;;;;75.63;31.60;;;;;;;;;;5060947;28;20119;-33
2021/11/24 07:11:48;;;;;;;69.63;31.08;;;;;;;;;;5085316;28;20032;-33
2021/11/24 07:14:13;;;;;;;75.32;30.70;;;;;;;;;;5063837;28;20020;-33
2021/11/24 07:16:38;;;;;;;97.70;32.97;;;;;;;;;;5070587;28;20471;-34
2021/11/24 07:19:04;;;;;;;63.38;29.20;;;;;;;;;;5070724;28;20390;-33
2021/11/24 07:21:29;;;;;;;68.03;29.40;;;;;;;;;;5089778;28;20478;-34
2021/11/24 07:23:55;;;;;;;70.75;30.75;;;;;;;;;;5072238;28;20016;-34
2021/11/24 07:26:20;;;;;;;61.25;29.38;;;;;;;;;;5088949;28;20373;-42
2021/11/24 07:28:45;;;;;;;58.20;28.20;;;;;;;;;;5089081;28;20035;-34
2021/11/24 07:31:11;;;;;;;63.80;30.23;;;;;;;;;;5084549;28;20024;-33
2021/11/24 07:33:36;;;;;;;59.35;29.45;;;;;;;;;;5089560;28;20052;-33
2021/11/24 07:36:01;;;;;;;55.70;28.92;;;;;;;;;;5089411;28;20020;-33
2021/11/24 07:38:29;;;;;;;53.80;27.50;;;;;;;;;;5069121;28;20052;-33
2021/11/24 07:40:55;;;;;;;59.20;28.83;;;;;;;;;;5088446;28;20439;-36
2021/11/24 07:43:20;;;;;;;53.88;29.05;;;;;;;;;;5080139;28;20078;-34
2021/11/24 07:45:45;;;;;;;50.45;27.02;;;;;;;;;;5085888;28;20028;-34
2021/11/24 07:48:11;;;;;;;49.15;26.95;;;;;;;;;;5087226;28;20044;-33
2021/11/24 07:50:37;;;;;;;52.38;25.88;;;;;;;;;;5084583;28;20391;-33
2021/11/24 07:53:02;;;;;;;47.25;25.35;;;;;;;;;;5087062;28;20073;-34
2021/11/24 07:55:28;;;;;;;51.92;25.77;;;;;;;;;;5090237;28;20054;-34
2021/11/24 07:57:53;;;;;;;52.33;26.13;;;;;;;;;;5080784;28;20012;-35
2021/11/24 08:00:18;;;;;;;51.85;26.88;;;;;;;;;;5085453;28;20028;-34
2021/11/24 08:02:43;;;;;;;42.22;23.25;;;;;;;;;;5081951;28;20036;-35
2021/11/24 08:05:09;;;;;;;41.10;24.55;;;;;;;;;;5088700;28;20074;-34
2021/11/24 08:07:36;;;;;;;75.05;28.08;;;;;;;;;;5081280;28;20411;-34
2021/11/24 08:10:03;;;;;;;60.17;29.02;;;;;;;;;;5085589;28;20047;-35
2021/11/24 08:12:28;;;;;;;48.17;27.38;;;;;;;;;;5079935;28;20435;-34
2021/11/24 08:14:53;;;;;;;54.95;27.40;;;;;;;;;;5082186;28;20055;-35
2021/11/24 08:17:19;;;;;;;46.20;26.52;;;;;;;;;;5085551;28;20024;-34
2021/11/24 08:19:44;;;;;;;56.88;27.08;;;;;;;;;;5087826;28;20122;-38
2021/11/24 08:22:10;;;;;;;41.80;24.25;;;;;;;;;;5088858;28;20023;-35
2021/11/24 08:24:35;;;;;;;43.78;23.63;;;;;;;;;;5089391;28;20403;-37
2021/11/24 08:27:02;;;;;;;39.25;20.92;;;;;;;;;;5077267;28;20613;-34
2021/11/24 08:29:27;;;;;;;43.33;22.25;;;;;;;;;;5077575;28;20052;-36
2021/11/24 08:31:53;;;;;;;33.22;19.67;;;;;;;;;;5057871;28;20028;-35
2021/11/24 08:34:20;;;;;;;41.38;20.38;;;;;;;;;;5056918;28;20138;-36
2021/11/24 08:36:45;;;;;;;54.22;20.23;;;;;;;;;;5058934;28;20016;-35
2021/11/24 08:39:11;;;;;;;42.60;19.50;;;;;;;;;;5081669;28;20038;-36
2021/11/24 08:41:36;;;;;;;32.72;19.00;;;;;;;;;;5088169;28;20036;-36
2021/11/24 08:44:01;;;;;;;37.13;19.48;;;;;;;;;;5082007;28;20090;-36
2021/11/24 08:46:27;;;;;;;39.92;19.70;;;;;;;;;;5083286;28;20365;-37
2021/11/24 08:48:52;;;;;;;36.95;18.77;;;;;;;;;;5070096;28;20039;-35
2021/11/24 08:51:18;;;;;;;36.35;19.20;;;;;;;;;;5076368;28;20024;-35
2021/11/24 08:53:43;;;;;;;33.00;18.52;;;;;;;;;;5095482;28;20402;-35
2021/11/24 08:56:09;;;;;;;36.30;19.75;;;;;;;;;;5077021;28;20020;-35
2021/11/24 08:58:34;;;;;;;36.03;18.60;;;;;;;;;;5094843;28;20020;-34
2021/11/24 09:00:59;;;;;;;29.40;17.55;;;;;;;;;;5094611;28;20039;-35
2021/11/24 09:03:25;;;;;;;35.45;18.08;;;;;;;;;;5076897;28;20456;-35
2021/11/24 09:05:51;;;;;;;28.17;16.73;;;;;;;;;;5077099;28;20020;-34
2021/11/24 09:08:16;;;;;;;31.05;17.30;;;;;;;;;;5076657;28;20138;-35
2021/11/24 09:10:42;;;;;;;33.00;17.77;;;;;;;;;;5095184;28;20016;-35
2021/11/24 09:13:07;;;;;;;35.65;17.45;;;;;;;;;;5094527;28;20020;-34
2021/11/24 09:15:33;;;;;;;32.80;17.75;;;;;;;;;;5094375;28;20028;-36
2021/11/24 09:17:58;;;;;;;35.92;19.30;;;;;;;;;;5094370;28;20050;-34
2021/11/24 09:20:24;;;;;;;32.05;17.38;;;;;;;;;;5094684;28;20020;-34
2021/11/24 09:22:50;;;;;;;32.30;18.38;;;;;;;;;;5093857;28;20035;-35
2021/11/24 09:25:18;;;;;;;34.90;19.25;;;;;;;;;;5094178;28;20024;-36
2021/11/24 09:27:58;;;;;;;35.08;19.42;;;;;;;;;;5094891;28;20031;-35
2021/11/24 09:30:24;;;;;;;29.17;16.30;;;;;;;;;;5094573;28;20039;-34
2021/11/24 09:32:49;;;;;;;27.30;16.00;;;;;;;;;;5090131;28;20392;-36
2021/11/24 09:35:15;;;;;;;35.28;16.25;;;;;;;;;;5087641;28;20012;-40
2021/11/24 09:37:41;;;;;;;26.35;15.25;;;;;;;;;;5092363;28;20225;-34
2021/11/24 09:40:07;;;;;;;29.52;15.65;;;;;;;;;;5074066;28;20031;-40
2021/11/24 09:42:35;;;;;;;28.13;16.10;;;;;;;;;;5090928;28;20055;-34
2021/11/24 09:45:00;;;;;;;28.60;16.33;;;;;;;;;;5085231;28;20093;-38
2021/11/24 09:47:25;;;;;;;33.95;16.77;;;;;;;;;;5090594;28;20020;-34
2021/11/24 09:49:55;;;;;;;28.85;16.60;;;;;;;;;;5059148;28;20052;-35
2021/11/24 09:52:20;;;;;;;33.22;16.30;;;;;;;;;;5076972;28;20123;-35
2021/11/24 09:54:49;;;;;;;34.00;16.67;;;;;;;;;;5087776;28;20790;-39
2021/11/24 09:57:16;;;;;;;26.30;15.70;;;;;;;;;;5081820;28;20025;-35
2021/11/24 09:59:42;;;;;;;29.77;16.17;;;;;;;;;;5077447;28;20107;-35
2021/11/24 10:02:08;;;;;;;30.05;15.65;;;;;;;;;;5079569;28;20107;-37
2021/11/24 10:04:33;;;;;;;26.95;14.60;;;;;;;;;;5090028;28;20072;-35
2021/11/24 10:06:59;;;;;;;44.05;15.50;;;;;;;;;;5085412;28;20112;-39
2021/11/24 10:09:24;;;;;;;74.22;15.68;;;;;;;;;;5072875;28;20028;-35
2021/11/24 10:11:50;;;;;;;26.40;15.90;;;;;;;;;;5073290;28;20024;-34
2021/11/24 10:14:15;;;;;;;27.02;15.55;;;;;;;;;;5082906;28;20483;-37
2021/11/24 10:16:40;;;;;;;27.35;16.25;;;;;;;;;;5080019;28;20123;-34
2021/11/24 10:19:10;;;;;;;23.83;14.98;;;;;;;;;;5070486;28;20024;-35
2021/11/24 10:21:52;;;;;;;23.80;14.35;;;;;;;;;;5085074;28;20368;-34
2021/11/24 10:24:25;;;;;;;26.45;15.13;;;;;;;;;;5080654;28;20024;-35
2021/11/24 10:26:51;;;;;;;21.25;13.77;;;;;;;;;;5070984;28;20093;-36
2021/11/24 10:29:17;;;;;;;27.17;14.90;;;;;;;;;;5087544;28;20467;-34
2021/11/24 10:31:44;;;;;;;22.05;14.07;;;;;;;;;;5088032;28;20046;-35
2021/11/24 10:34:12;;;;;;;30.38;14.48;;;;;;;;;;5073342;28;20540;-37
2021/11/24 10:36:50;;;;;;;23.03;14.20;;;;;;;;;;5074070;28;20078;-36
2021/11/24 10:39:15;;;;;;;40.80;17.70;;;;;;;;;;5083724;28;20109;-35
2021/11/24 10:41:41;;;;;;;28.77;14.32;;;;;;;;;;5090245;28;20483;-35
2021/11/24 10:44:06;;;;;;;24.00;14.38;;;;;;;;;;5086407;28;20028;-35
2021/11/24 10:46:33;;;;;;;24.20;14.70;;;;;;;;;;5074188;28;21012;-35
2021/11/24 10:49:09;;;;;;;21.42;13.98;;;;;;;;;;5090274;28;20039;-35
2021/11/24 10:51:41;;;;;;;19.67;12.90;;;;;;;;;;5087115;28;20038;-35
2021/11/24 10:54:17;;;;;;;32.80;13.88;;;;;;;;;;5084450;28;20834;-36
2021/11/24 10:57:03;;;;;;;22.67;13.68;;;;;;;;;;5088850;28;20036;-34
2021/11/24 10:59:29;;;;;;;20.33;12.07;;;;;;;;;;5067421;28;20035;-35
2021/11/24 11:02:13;;;;;;;17.55;12.05;;;;;;;;;;5083657;28;20446;-34
2021/11/24 11:04:57;;;;;;;20.23;12.85;;;;;;;;;;5072702;28;20024;-35
2021/11/24 11:07:23;;;;;;;24.00;14.23;;;;;;;;;;5087488;28;20016;-35
2021/11/24 11:09:58;;;;;;;22.63;13.55;;;;;;;;;;5071666;28;20043;-35
2021/11/24 11:12:26;;;;;;;37.13;15.88;;;;;;;;;;5064226;28;20016;-36
2021/11/24 11:14:52;;;;;;;22.08;13.00;;;;;;;;;;5053481;28;20020;-35
2021/11/24 11:17:17;;;;;;;22.58;13.55;;;;;;;;;;5070947;28;20025;-34
2021/11/24 11:19:46;;;;;;;22.55;13.50;;;;;;;;;;5072201;28;20029;-34
2021/11/24 11:22:15;;;;;;;36.40;14.93;;;;;;;;;;5070265;28;20035;-34
2021/11/24 11:24:41;;;;;;;32.10;14.07;;;;;;;;;;5053653;28;20020;-34
2021/11/24 11:27:06;;;;;;;32.40;15.50;;;;;;;;;;5071704;28;20024;-34
2021/11/24 11:29:32;;;;;;;26.17;13.20;;;;;;;;;;5071913;28;20190;-34
2021/11/24 11:31:58;;;;;;;27.92;13.48;;;;;;;;;;5070272;28;20024;-38
2021/11/24 11:34:24;;;;;;;31.65;14.43;;;;;;;;;;5072101;28;20025;-34
2021/11/24 11:36:49;;;;;;;23.90;13.43;;;;;;;;;;5070927;28;20027;-35
2021/11/24 11:39:14;;;;;;;24.48;13.32;;;;;;;;;;5081937;28;20012;-38
2021/11/24 11:41:42;;;;;;;27.27;13.45;;;;;;;;;;5091566;28;20122;-34
2021/11/24 11:44:11;;;;;;;27.88;13.48;;;;;;;;;;5073957;28;20020;-33
2021/11/24 11:46:41;;;;;;;17.80;10.88;;;;;;;;;;5073291;28;20306;-35
2021/11/24 11:49:08;;;;;;;21.95;11.98;;;;;;;;;;5091920;28;20390;-34
2021/11/24 11:51:37;;;;;;;26.70;12.65;;;;;;;;;;5073372;28;20051;-34
2021/11/24 11:54:02;;;;;;;16.35;10.63;;;;;;;;;;5073484;28;20035;-34
2021/11/24 11:56:29;;;;;;;20.67;12.32;;;;;;;;;;5073655;28;20028;-35
2021/11/24 11:59:02;;;;;;;19.55;11.88;;;;;;;;;;5073896;28;20042;-34
2021/11/24 12:01:29;;;;;;;20.23;11.68;;;;;;;;;;5063443;28;20094;-35
2021/11/24 12:03:59;;;;;;;18.63;11.20;;;;;;;;;;5062863;28;20040;-34
2021/11/24 12:06:26;;;;;;;21.65;11.55;;;;;;;;;;5092948;28;20058;-34
2021/11/24 12:09:08;;;;;;;25.60;12.63;;;;;;;;;;5096228;28;20038;-34
2021/11/24 12:11:52;;;;;;;18.23;10.63;;;;;;;;;;5076852;28;20101;-34
2021/11/24 12:14:36;;;;;;;18.77;10.82;;;;;;;;;;5077948;28;20424;-33
2021/11/24 12:17:21;;;;;;;17.23;10.60;;;;;;;;;;5077263;28;20024;-34
2021/11/24 12:19:46;;;;;;;17.65;10.35;;;;;;;;;;5095703;28;20451;-34
2021/11/24 12:22:12;;;;;;;20.73;11.85;;;;;;;;;;5094828;28;20024;-34
2021/11/24 12:24:38;;;;;;;19.25;10.82;;;;;;;;;;5094565;28;20427;-35
2021/11/24 12:27:04;;;;;;;24.73;11.77;;;;;;;;;;5096027;28;20016;-36
2021/11/24 12:29:46;;;;;;;24.95;10.68;;;;;;;;;;5072536;28;20032;-36
2021/11/24 12:32:11;;;;;;;18.45;10.88;;;;;;;;;;5090770;28;20028;-34
2021/11/24 12:34:51;;;;;;;17.58;11.15;;;;;;;;;;5093890;28;20035;-35
2021/11/24 12:37:25;;;;;;;20.48;10.52;;;;;;;;;;5090210;28;20055;-33
2021/11/24 12:39:51;;;;;;;17.75;10.60;;;;;;;;;;5093052;28;20028;-35
2021/11/24 12:42:24;;;;;;;19.48;10.73;;;;;;;;;;5075599;28;20036;-34
2021/11/24 12:44:53;;;;;;;20.83;11.13;;;;;;;;;;5070979;28;20024;-33
2021/11/24 12:47:22;;;;;;;24.25;13.32;;;;;;;;;;5075869;28;20028;-38
2021/11/24 12:49:48;;;;;;;22.00;13.63;;;;;;;;;;5056928;28;20064;-35
2021/11/24 12:52:14;;;;;;;21.85;12.50;;;;;;;;;;5074012;28;20565;-35
2021/11/24 12:54:42;;;;;;;20.23;10.73;;;;;;;;;;5056243;28;20048;-35
2021/11/24 12:57:08;;;;;;;18.00;11.35;;;;;;;;;;5073044;28;20111;-33
2021/11/24 12:59:34;;;;;;;19.70;10.45;;;;;;;;;;5088511;28;20103;-35
2021/11/24 13:02:01;;;;;;;18.73;10.57;;;;;;;;;;5083721;28;20032;-34
2021/11/24 13:04:31;;;;;;;19.58;10.68;;;;;;;;;;5094275;28;20052;-34
2021/11/24 13:06:56;;;;;;;23.05;11.65;;;;;;;;;;5069776;28;20036;-34
2021/11/24 13:09:23;;;;;;;20.42;11.65;;;;;;;;;;5087127;28;20032;-33
2021/11/24 13:12:14;;;;;;;19.23;11.55;;;;;;;;;;5091793;28;20066;-38
2021/11/24 13:14:44;;;;;;;19.85;12.38;;;;;;;;;;5073523;28;20044;-37
2021/11/24 13:17:19;;;;;;;23.83;12.40;;;;;;;;;;5085806;28;20035;-34
2021/11/24 13:19:47;;;;;;;33.95;11.77;;;;;;;;;;5090047;28;20020;-34
2021/11/24 13:22:13;;;;;;;24.27;12.02;;;;;;;;;;5090185;28;20032;-33
2021/11/24 13:24:42;;;;;;;20.73;11.63;;;;;;;;;;5086614;28;20464;-36
2021/11/24 13:27:08;;;;;;;23.15;12.15;;;;;;;;;;5090680;28;20032;-34
2021/11/24 13:29:35;;;;;;;21.55;11.93;;;;;;;;;;5076291;28;20051;-33
2021/11/24 13:32:03;;;;;;;16.58;10.55;;;;;;;;;;5093737;28;20447;-34
2021/11/24 13:34:29;;;;;;;30.33;12.55;;;;;;;;;;5078205;28;20025;-38
2021/11/24 13:36:54;;;;;;;25.27;11.45;;;;;;;;;;5089218;28;20023;-34
2021/11/24 13:39:27;;;;;;;30.23;14.85;;;;;;;;;;5087330;28;20466;-41
2021/11/24 13:41:53;;;;;;;29.00;14.73;;;;;;;;;;5076815;28;20032;-35
2021/11/24 13:44:18;;;;;;;27.60;12.38;;;;;;;;;;5085522;28;20036;-34
2021/11/24 13:46:47;;;;;;;21.08;12.98;;;;;;;;;;5079809;28;20025;-34
2021/11/24 13:49:16;;;;;;;20.65;11.77;;;;;;;;;;5086306;28;20031;-34
2021/11/24 13:51:42;;;;;;;29.13;15.60;;;;;;;;;;5072703;28;20113;-41
2021/11/24 13:54:15;;;;;;;50.63;17.52;;;;;;;;;;5085847;28;20016;-34
2021/11/24 13:56:45;;;;;;;41.25;15.27;;;;;;;;;;5086612;28;20145;-35
2021/11/24 13:59:11;;;;;;;31.10;14.48;;;;;;;;;;5088760;28;20631;-38
2021/11/24 14:01:36;;;;;;;40.28;16.15;;;;;;;;;;5089816;28;20024;-33
2021/11/24 14:04:02;;;;;;;28.73;13.45;;;;;;;;;;5078062;28;20047;-34
2021/11/24 14:06:35;;;;;;;23.60;11.68;;;;;;;;;;5072050;28;20025;-34
2021/11/24 14:09:18;;;;;;;24.45;12.38;;;;;;;;;;5072972;28;20035;-33
2021/11/24 14:11:59;;;;;;;142.75;42.90;;;;;;;;;;5072671;28;20483;-34
2021/11/24 14:14:25;;;;;;;152.73;43.00;;;;;;;;;;5072616;28;20028;-34